sensor_id;sensor_type;location;lat;lon;timestamp;P1;durP1;ratioP1;P2;durP2;ratioP2
48751;SDS011;34544;48.836;9.174;2022-11-03T00:01:43;18.92;;;8.63;;
48751;SDS011;34544;48.836;9.174;2022-11-03T00:04:11;14.55;;;7.95;;
48751;SDS011;34544;48.836;9.174;2022-11-03T00:06:39;22.05;;;8.82;;
48751;SDS011;34544;48.836;9.174;2022-11-03T00:09:07;17.58;;;8.93;;
48751;SDS011;34544;48.836;9.174;2022-11-03T00:11:35;18.75;;;9.18;;
48751;SDS011;34544;48.836;9.174;2022-11-03T00:14:02;16.17;;;7.85;;
48751;SDS011;34544;48.836;9.174;2022-11-03T00:16:28;16.75;;;8.30;;
48751;SDS011;34544;48.836;9.174;2022-11-03T00:18:54;17.63;;;8.65;;
48751;SDS011;34544;48.836;9.174;2022-11-03T00:21:20;16.95;;;8.95;;
48751;SDS011;34544;48.836;9.174;2022-11-03T00:23:46;26.48;;;9.32;;
48751;SDS011;34544;48.836;9.174;2022-11-03T00:26:15;19.52;;;9.93;;
48751;SDS011;34544;48.836;9.174;2022-11-03T00:28:43;14.07;;;8.38;;
48751;SDS011;34544;48.836;9.174;2022-11-03T00:31:14;20.05;;;9.73;;
48751;SDS011;34544;48.836;9.174;2022-11-03T00:33:51;20.38;;;9.15;;
48751;SDS011;34544;48.836;9.174;2022-11-03T00:36:19;28.88;;;9.75;;
48751;SDS011;34544;48.836;9.174;2022-11-03T00:38:49;16.25;;;8.35;;
48751;SDS011;34544;48.836;9.174;2022-11-03T00:41:15;17.40;;;9.02;;
48751;SDS011;34544;48.836;9.174;2022-11-03T00:43:42;23.25;;;8.88;;
48751;SDS011;34544;48.836;9.174;2022-11-03T00:46:08;19.67;;;9.60;;
48751;SDS011;34544;48.836;9.174;2022-11-03T00:48:34;22.13;;;9.77;;
48751;SDS011;34544;48.836;9.174;2022-11-03T00:51:08;16.00;;;8.30;;
48751;SDS011;34544;48.836;9.174;2022-11-03T00:53:38;21.38;;;9.68;;
48751;SDS011;34544;48.836;9.174;2022-11-03T00:56:06;16.35;;;8.32;;
48751;SDS011;34544;48.836;9.174;2022-11-03T00:58:40;14.82;;;8.93;;
48751;SDS011;34544;48.836;9.174;2022-11-03T01:01:10;23.40;;;9.93;;
48751;SDS011;34544;48.836;9.174;2022-11-03T01:03:38;19.70;;;9.27;;
48751;SDS011;34544;48.836;9.174;2022-11-03T01:06:06;16.67;;;9.38;;
48751;SDS011;34544;48.836;9.174;2022-11-03T01:08:52;20.05;;;8.52;;
48751;SDS011;34544;48.836;9.174;2022-11-03T01:11:22;15.18;;;8.85;;
48751;SDS011;34544;48.836;9.174;2022-11-03T01:14:08;15.27;;;9.10;;
48751;SDS011;34544;48.836;9.174;2022-11-03T01:16:35;20.30;;;8.45;;
48751;SDS011;34544;48.836;9.174;2022-11-03T01:19:00;15.68;;;9.68;;
48751;SDS011;34544;48.836;9.174;2022-11-03T01:21:26;21.90;;;9.73;;
48751;SDS011;34544;48.836;9.174;2022-11-03T01:23:52;17.13;;;8.63;;
48751;SDS011;34544;48.836;9.174;2022-11-03T01:26:17;19.50;;;10.07;;
48751;SDS011;34544;48.836;9.174;2022-11-03T01:28:44;16.92;;;8.82;;
48751;SDS011;34544;48.836;9.174;2022-11-03T01:31:15;18.42;;;8.45;;
48751;SDS011;34544;48.836;9.174;2022-11-03T01:33:45;20.48;;;9.73;;
48751;SDS011;34544;48.836;9.174;2022-11-03T01:36:11;18.17;;;8.88;;
48751;SDS011;34544;48.836;9.174;2022-11-03T01:38:38;18.45;;;9.43;;
48751;SDS011;34544;48.836;9.174;2022-11-03T01:41:05;18.58;;;8.95;;
48751;SDS011;34544;48.836;9.174;2022-11-03T01:43:33;23.88;;;8.32;;
48751;SDS011;34544;48.836;9.174;2022-11-03T01:51:25;18.90;;;8.68;;
48751;SDS011;34544;48.836;9.174;2022-11-03T01:53:53;19.05;;;9.90;;
48751;SDS011;34544;48.836;9.174;2022-11-03T01:56:21;18.48;;;9.77;;
48751;SDS011;34544;48.836;9.174;2022-11-03T01:58:48;24.25;;;9.82;;
48751;SDS011;34544;48.836;9.174;2022-11-03T02:01:17;17.05;;;9.35;;
48751;SDS011;34544;48.836;9.174;2022-11-03T02:03:48;22.00;;;10.63;;
48751;SDS011;34544;48.836;9.174;2022-11-03T02:06:18;20.58;;;9.93;;
48751;SDS011;34544;48.836;9.174;2022-11-03T02:08:54;20.10;;;9.73;;
48751;SDS011;34544;48.836;9.174;2022-11-03T02:11:32;16.65;;;9.40;;
48751;SDS011;34544;48.836;9.174;2022-11-03T02:14:17;18.42;;;9.65;;
48751;SDS011;34544;48.836;9.174;2022-11-03T02:16:44;16.27;;;9.68;;
48751;SDS011;34544;48.836;9.174;2022-11-03T02:19:30;19.52;;;9.48;;
48751;SDS011;34544;48.836;9.174;2022-11-03T02:27:17;24.48;;;11.43;;
48751;SDS011;34544;48.836;9.174;2022-11-03T02:29:44;20.33;;;10.25;;
48751;SDS011;34544;48.836;9.174;2022-11-03T02:32:11;22.55;;;10.57;;
48751;SDS011;34544;48.836;9.174;2022-11-03T02:34:46;20.75;;;11.20;;
48751;SDS011;34544;48.836;9.174;2022-11-03T02:37:20;19.70;;;10.20;;
48751;SDS011;34544;48.836;9.174;2022-11-03T02:40:11;16.52;;;10.38;;
48751;SDS011;34544;48.836;9.174;2022-11-03T02:42:45;20.60;;;10.23;;
48751;SDS011;34544;48.836;9.174;2022-11-03T02:45:16;22.77;;;10.57;;
48751;SDS011;34544;48.836;9.174;2022-11-03T02:47:45;24.35;;;10.82;;
48751;SDS011;34544;48.836;9.174;2022-11-03T02:50:13;21.48;;;11.00;;
48751;SDS011;34544;48.836;9.174;2022-11-03T02:52:39;17.48;;;10.00;;
48751;SDS011;34544;48.836;9.174;2022-11-03T03:00:34;18.52;;;11.05;;
48751;SDS011;34544;48.836;9.174;2022-11-03T03:03:14;17.15;;;10.90;;
48751;SDS011;34544;48.836;9.174;2022-11-03T03:05:44;24.88;;;11.10;;
48751;SDS011;34544;48.836;9.174;2022-11-03T03:08:13;21.58;;;11.25;;
48751;SDS011;34544;48.836;9.174;2022-11-03T03:10:40;22.13;;;12.43;;
48751;SDS011;34544;48.836;9.174;2022-11-03T03:13:09;29.00;;;12.52;;
48751;SDS011;34544;48.836;9.174;2022-11-03T03:15:41;24.42;;;11.65;;
48751;SDS011;34544;48.836;9.174;2022-11-03T03:18:30;24.00;;;13.43;;
48751;SDS011;34544;48.836;9.174;2022-11-03T03:21:21;23.00;;;12.15;;
48751;SDS011;34544;48.836;9.174;2022-11-03T03:23:51;19.75;;;12.63;;
48751;SDS011;34544;48.836;9.174;2022-11-03T03:26:23;22.17;;;12.88;;
48751;SDS011;34544;48.836;9.174;2022-11-03T03:28:52;26.88;;;12.75;;
48751;SDS011;34544;48.836;9.174;2022-11-03T03:31:21;23.92;;;11.43;;
48751;SDS011;34544;48.836;9.174;2022-11-03T03:33:51;24.48;;;11.82;;
48751;SDS011;34544;48.836;9.174;2022-11-03T03:36:19;24.10;;;13.32;;
48751;SDS011;34544;48.836;9.174;2022-11-03T03:38:47;27.50;;;12.75;;
48751;SDS011;34544;48.836;9.174;2022-11-03T03:41:18;23.50;;;12.88;;
48751;SDS011;34544;48.836;9.174;2022-11-03T03:43:49;31.35;;;13.35;;
48751;SDS011;34544;48.836;9.174;2022-11-03T03:46:17;30.30;;;12.27;;
48751;SDS011;34544;48.836;9.174;2022-11-03T03:48:45;30.75;;;13.98;;
48751;SDS011;34544;48.836;9.174;2022-11-03T03:51:11;22.77;;;11.98;;
48751;SDS011;34544;48.836;9.174;2022-11-03T03:53:39;20.65;;;12.60;;
48751;SDS011;34544;48.836;9.174;2022-11-03T03:56:05;26.63;;;13.70;;
48751;SDS011;34544;48.836;9.174;2022-11-03T03:58:31;25.55;;;12.68;;
48751;SDS011;34544;48.836;9.174;2022-11-03T04:00:56;24.13;;;14.02;;
48751;SDS011;34544;48.836;9.174;2022-11-03T04:03:23;22.55;;;11.88;;
48751;SDS011;34544;48.836;9.174;2022-11-03T04:05:49;24.17;;;12.05;;
48751;SDS011;34544;48.836;9.174;2022-11-03T04:08:17;27.23;;;12.88;;
48751;SDS011;34544;48.836;9.174;2022-11-03T04:10:43;21.67;;;11.75;;
48751;SDS011;34544;48.836;9.174;2022-11-03T04:13:30;25.25;;;12.00;;
48751;SDS011;34544;48.836;9.174;2022-11-03T04:16:15;21.98;;;12.55;;
48751;SDS011;34544;48.836;9.174;2022-11-03T04:18:59;26.63;;;12.10;;
48751;SDS011;34544;48.836;9.174;2022-11-03T04:21:43;30.63;;;12.60;;
48751;SDS011;34544;48.836;9.174;2022-11-03T04:24:29;24.40;;;13.13;;
48751;SDS011;34544;48.836;9.174;2022-11-03T04:27:00;23.60;;;13.30;;
48751;SDS011;34544;48.836;9.174;2022-11-03T04:29:29;21.63;;;12.43;;
48751;SDS011;34544;48.836;9.174;2022-11-03T04:31:55;26.23;;;13.25;;
48751;SDS011;34544;48.836;9.174;2022-11-03T04:34:21;27.75;;;13.77;;
48751;SDS011;34544;48.836;9.174;2022-11-03T04:36:48;33.00;;;14.02;;
48751;SDS011;34544;48.836;9.174;2022-11-03T04:39:15;31.92;;;14.00;;
48751;SDS011;34544;48.836;9.174;2022-11-03T04:41:43;28.30;;;12.38;;
48751;SDS011;34544;48.836;9.174;2022-11-03T04:44:10;26.70;;;13.23;;
48751;SDS011;34544;48.836;9.174;2022-11-03T04:46:40;25.42;;;13.15;;
48751;SDS011;34544;48.836;9.174;2022-11-03T04:49:09;25.50;;;12.80;;
48751;SDS011;34544;48.836;9.174;2022-11-03T04:51:38;29.33;;;13.70;;
48751;SDS011;34544;48.836;9.174;2022-11-03T04:56:37;25.08;;;13.60;;
48751;SDS011;34544;48.836;9.174;2022-11-03T04:59:08;25.02;;;14.23;;
48751;SDS011;34544;48.836;9.174;2022-11-03T05:01:36;27.23;;;13.88;;
48751;SDS011;34544;48.836;9.174;2022-11-03T05:04:03;24.05;;;12.65;;
48751;SDS011;34544;48.836;9.174;2022-11-03T05:06:36;29.42;;;13.35;;
48751;SDS011;34544;48.836;9.174;2022-11-03T05:09:06;20.90;;;12.32;;
48751;SDS011;34544;48.836;9.174;2022-11-03T05:11:47;22.67;;;12.48;;
48751;SDS011;34544;48.836;9.174;2022-11-03T05:14:14;28.60;;;13.57;;
48751;SDS011;34544;48.836;9.174;2022-11-03T05:16:42;26.67;;;12.38;;
48751;SDS011;34544;48.836;9.174;2022-11-03T05:19:17;23.73;;;12.18;;
48751;SDS011;34544;48.836;9.174;2022-11-03T05:21:48;24.20;;;12.55;;
48751;SDS011;34544;48.836;9.174;2022-11-03T05:24:15;31.15;;;14.30;;
48751;SDS011;34544;48.836;9.174;2022-11-03T05:26:43;23.52;;;12.45;;
48751;SDS011;34544;48.836;9.174;2022-11-03T05:29:11;25.58;;;13.35;;
48751;SDS011;34544;48.836;9.174;2022-11-03T05:31:37;24.40;;;12.70;;
48751;SDS011;34544;48.836;9.174;2022-11-03T05:39:34;20.63;;;11.80;;
48751;SDS011;34544;48.836;9.174;2022-11-03T05:42:02;27.58;;;14.07;;
48751;SDS011;34544;48.836;9.174;2022-11-03T05:44:51;20.20;;;12.40;;
48751;SDS011;34544;48.836;9.174;2022-11-03T05:47:20;24.90;;;13.52;;
48751;SDS011;34544;48.836;9.174;2022-11-03T05:49:47;19.17;;;12.18;;
48751;SDS011;34544;48.836;9.174;2022-11-03T05:52:21;31.45;;;13.43;;
48751;SDS011;34544;48.836;9.174;2022-11-03T05:54:50;22.30;;;12.05;;
48751;SDS011;34544;48.836;9.174;2022-11-03T05:57:17;23.05;;;13.57;;
48751;SDS011;34544;48.836;9.174;2022-11-03T05:59:44;23.30;;;13.07;;
48751;SDS011;34544;48.836;9.174;2022-11-03T06:02:23;19.02;;;12.65;;
48751;SDS011;34544;48.836;9.174;2022-11-03T06:05:22;22.25;;;12.50;;
48751;SDS011;34544;48.836;9.174;2022-11-03T06:07:50;25.05;;;12.38;;
48751;SDS011;34544;48.836;9.174;2022-11-03T06:10:25;27.13;;;13.07;;
48751;SDS011;34544;48.836;9.174;2022-11-03T06:12:55;19.48;;;11.93;;
48751;SDS011;34544;48.836;9.174;2022-11-03T06:17:56;24.17;;;11.55;;
48751;SDS011;34544;48.836;9.174;2022-11-03T06:20:22;28.80;;;11.13;;
48751;SDS011;34544;48.836;9.174;2022-11-03T06:22:49;19.08;;;10.80;;
48751;SDS011;34544;48.836;9.174;2022-11-03T06:25:25;25.67;;;12.10;;
48751;SDS011;34544;48.836;9.174;2022-11-03T06:27:57;23.40;;;12.18;;
48751;SDS011;34544;48.836;9.174;2022-11-03T06:30:30;20.25;;;12.50;;
48751;SDS011;34544;48.836;9.174;2022-11-03T06:32:58;24.95;;;13.73;;
48751;SDS011;34544;48.836;9.174;2022-11-03T06:35:28;27.23;;;13.55;;
48751;SDS011;34544;48.836;9.174;2022-11-03T06:37:55;24.95;;;12.55;;
48751;SDS011;34544;48.836;9.174;2022-11-03T06:42:53;23.83;;;13.10;;
48751;SDS011;34544;48.836;9.174;2022-11-03T06:45:23;27.65;;;12.77;;
48751;SDS011;34544;48.836;9.174;2022-11-03T06:47:51;27.30;;;13.48;;
48751;SDS011;34544;48.836;9.174;2022-11-03T06:50:24;27.85;;;12.20;;
48751;SDS011;34544;48.836;9.174;2022-11-03T06:52:52;28.10;;;13.68;;
48751;SDS011;34544;48.836;9.174;2022-11-03T06:55:25;28.40;;;13.18;;
48751;SDS011;34544;48.836;9.174;2022-11-03T06:57:59;22.23;;;12.57;;
48751;SDS011;34544;48.836;9.174;2022-11-03T07:00:47;23.35;;;11.82;;
48751;SDS011;34544;48.836;9.174;2022-11-03T07:03:23;15.65;;;11.00;;
48751;SDS011;34544;48.836;9.174;2022-11-03T07:08:24;13.57;;;9.48;;
48751;SDS011;34544;48.836;9.174;2022-11-03T07:13:57;12.80;;;8.98;;
48751;SDS011;34544;48.836;9.174;2022-11-03T07:16:56;13.02;;;8.30;;
48751;SDS011;34544;48.836;9.174;2022-11-03T07:19:28;18.33;;;8.15;;
48751;SDS011;34544;48.836;9.174;2022-11-03T07:21:59;15.75;;;7.00;;
48751;SDS011;34544;48.836;9.174;2022-11-03T07:24:29;23.30;;;8.32;;
48751;SDS011;34544;48.836;9.174;2022-11-03T07:27:01;13.57;;;7.07;;
48751;SDS011;34544;48.836;9.174;2022-11-03T07:29:51;18.88;;;8.07;;
48751;SDS011;34544;48.836;9.174;2022-11-03T07:32:21;17.17;;;8.02;;
48751;SDS011;34544;48.836;9.174;2022-11-03T07:34:52;14.40;;;7.57;;
48751;SDS011;34544;48.836;9.174;2022-11-03T07:37:49;15.57;;;8.30;;
48751;SDS011;34544;48.836;9.174;2022-11-03T07:40:18;13.40;;;8.27;;
48751;SDS011;34544;48.836;9.174;2022-11-03T07:42:49;15.55;;;8.73;;
48751;SDS011;34544;48.836;9.174;2022-11-03T07:50:43;13.00;;;8.18;;
48751;SDS011;34544;48.836;9.174;2022-11-03T07:53:11;11.57;;;8.10;;
48751;SDS011;34544;48.836;9.174;2022-11-03T07:55:43;18.27;;;8.63;;
48751;SDS011;34544;48.836;9.174;2022-11-03T07:58:22;11.18;;;7.57;;
48751;SDS011;34544;48.836;9.174;2022-11-03T08:01:18;18.83;;;7.55;;
48751;SDS011;34544;48.836;9.174;2022-11-03T08:03:55;17.88;;;8.80;;
48751;SDS011;34544;48.836;9.174;2022-11-03T08:06:24;12.10;;;6.88;;
48751;SDS011;34544;48.836;9.174;2022-11-03T08:08:50;12.43;;;7.32;;
48751;SDS011;34544;48.836;9.174;2022-11-03T08:11:15;13.88;;;7.82;;
48751;SDS011;34544;48.836;9.174;2022-11-03T08:13:41;12.32;;;7.90;;
48751;SDS011;34544;48.836;9.174;2022-11-03T08:16:07;12.23;;;7.75;;
48751;SDS011;34544;48.836;9.174;2022-11-03T08:18:32;15.63;;;7.85;;
48751;SDS011;34544;48.836;9.174;2022-11-03T08:20:58;11.45;;;7.20;;
48751;SDS011;34544;48.836;9.174;2022-11-03T08:23:24;11.48;;;7.20;;
48751;SDS011;34544;48.836;9.174;2022-11-03T08:25:49;9.68;;;7.05;;
48751;SDS011;34544;48.836;9.174;2022-11-03T08:28:15;10.60;;;6.75;;
48751;SDS011;34544;48.836;9.174;2022-11-03T08:30:41;17.40;;;6.60;;
48751;SDS011;34544;48.836;9.174;2022-11-03T08:33:07;9.90;;;5.93;;
48751;SDS011;34544;48.836;9.174;2022-11-03T08:35:32;9.95;;;6.30;;
48751;SDS011;34544;48.836;9.174;2022-11-03T08:37:58;13.25;;;6.13;;
48751;SDS011;34544;48.836;9.174;2022-11-03T08:40:24;11.15;;;5.88;;
48751;SDS011;34544;48.836;9.174;2022-11-03T08:42:49;14.32;;;6.68;;
48751;SDS011;34544;48.836;9.174;2022-11-03T08:45:15;13.98;;;6.80;;
48751;SDS011;34544;48.836;9.174;2022-11-03T08:47:41;11.80;;;6.80;;
48751;SDS011;34544;48.836;9.174;2022-11-03T08:50:06;12.02;;;6.88;;
48751;SDS011;34544;48.836;9.174;2022-11-03T08:52:32;11.63;;;6.47;;
48751;SDS011;34544;48.836;9.174;2022-11-03T08:54:58;15.57;;;6.68;;
48751;SDS011;34544;48.836;9.174;2022-11-03T08:57:24;9.05;;;6.00;;
48751;SDS011;34544;48.836;9.174;2022-11-03T08:59:49;13.25;;;6.57;;
48751;SDS011;34544;48.836;9.174;2022-11-03T09:02:17;12.40;;;6.28;;
48751;SDS011;34544;48.836;9.174;2022-11-03T09:04:43;9.80;;;6.22;;
48751;SDS011;34544;48.836;9.174;2022-11-03T09:07:08;15.68;;;6.85;;
48751;SDS011;34544;48.836;9.174;2022-11-03T09:09:34;10.77;;;6.20;;
48751;SDS011;34544;48.836;9.174;2022-11-03T09:11:59;11.32;;;6.28;;
48751;SDS011;34544;48.836;9.174;2022-11-03T09:14:25;10.95;;;6.35;;
48751;SDS011;34544;48.836;9.174;2022-11-03T09:16:51;8.95;;;6.20;;
48751;SDS011;34544;48.836;9.174;2022-11-03T09:19:16;12.07;;;6.55;;
48751;SDS011;34544;48.836;9.174;2022-11-03T09:21:42;9.32;;;5.65;;
48751;SDS011;34544;48.836;9.174;2022-11-03T09:24:07;10.15;;;5.43;;
48751;SDS011;34544;48.836;9.174;2022-11-03T09:26:33;7.80;;;4.88;;
48751;SDS011;34544;48.836;9.174;2022-11-03T09:28:59;11.02;;;6.00;;
48751;SDS011;34544;48.836;9.174;2022-11-03T09:31:24;9.18;;;5.68;;
48751;SDS011;34544;48.836;9.174;2022-11-03T09:33:52;15.35;;;5.90;;
48751;SDS011;34544;48.836;9.174;2022-11-03T09:36:18;7.65;;;5.47;;
48751;SDS011;34544;48.836;9.174;2022-11-03T09:38:44;14.65;;;5.00;;
48751;SDS011;34544;48.836;9.174;2022-11-03T09:41:10;9.48;;;4.60;;
48751;SDS011;34544;48.836;9.174;2022-11-03T09:43:42;10.15;;;4.40;;
48751;SDS011;34544;48.836;9.174;2022-11-03T09:46:09;10.30;;;4.75;;
48751;SDS011;34544;48.836;9.174;2022-11-03T09:48:36;11.57;;;5.32;;
48751;SDS011;34544;48.836;9.174;2022-11-03T09:51:01;18.05;;;5.47;;
48751;SDS011;34544;48.836;9.174;2022-11-03T09:53:28;13.68;;;6.13;;
48751;SDS011;34544;48.836;9.174;2022-11-03T09:55:54;12.02;;;5.78;;
48751;SDS011;34544;48.836;9.174;2022-11-03T09:58:20;9.07;;;5.45;;
48751;SDS011;34544;48.836;9.174;2022-11-03T10:00:45;13.70;;;6.03;;
48751;SDS011;34544;48.836;9.174;2022-11-03T10:03:12;10.02;;;6.00;;
48751;SDS011;34544;48.836;9.174;2022-11-03T10:05:41;7.72;;;5.72;;
48751;SDS011;34544;48.836;9.174;2022-11-03T10:08:22;19.92;;;6.07;;
48751;SDS011;34544;48.836;9.174;2022-11-03T10:10:54;9.80;;;5.72;;
48751;SDS011;34544;48.836;9.174;2022-11-03T10:13:36;8.25;;;5.82;;
48751;SDS011;34544;48.836;9.174;2022-11-03T10:16:17;10.38;;;6.25;;
48751;SDS011;34544;48.836;9.174;2022-11-03T10:18:45;17.48;;;7.70;;
48751;SDS011;34544;48.836;9.174;2022-11-03T10:21:13;8.63;;;5.30;;
48751;SDS011;34544;48.836;9.174;2022-11-03T10:23:41;13.48;;;5.88;;
48751;SDS011;34544;48.836;9.174;2022-11-03T10:26:09;13.65;;;4.97;;
48751;SDS011;34544;48.836;9.174;2022-11-03T10:31:21;14.98;;;5.25;;
48751;SDS011;34544;48.836;9.174;2022-11-03T10:33:53;9.32;;;4.82;;
48751;SDS011;34544;48.836;9.174;2022-11-03T10:36:23;11.05;;;4.82;;
48751;SDS011;34544;48.836;9.174;2022-11-03T10:38:51;6.28;;;4.00;;
48751;SDS011;34544;48.836;9.174;2022-11-03T10:41:18;8.05;;;5.30;;
48751;SDS011;34544;48.836;9.174;2022-11-03T10:46:23;11.75;;;4.38;;
48751;SDS011;34544;48.836;9.174;2022-11-03T10:49:34;15.32;;;4.80;;
48751;SDS011;34544;48.836;9.174;2022-11-03T10:51:35;11.88;;;4.60;;
48751;SDS011;34544;48.836;9.174;2022-11-03T10:54:02;12.18;;;4.90;;
48751;SDS011;34544;48.836;9.174;2022-11-03T10:56:28;13.43;;;4.30;;
48751;SDS011;34544;48.836;9.174;2022-11-03T10:58:57;8.88;;;3.80;;
48751;SDS011;34544;48.836;9.174;2022-11-03T11:01:24;5.60;;;3.13;;
48751;SDS011;34544;48.836;9.174;2022-11-03T11:03:50;8.43;;;4.15;;
48751;SDS011;34544;48.836;9.174;2022-11-03T11:06:29;6.63;;;4.57;;
48751;SDS011;34544;48.836;9.174;2022-11-03T11:09:01;6.68;;;3.80;;
48751;SDS011;34544;48.836;9.174;2022-11-03T11:11:30;8.57;;;4.30;;
48751;SDS011;34544;48.836;9.174;2022-11-03T11:16:57;7.32;;;5.18;;
48751;SDS011;34544;48.836;9.174;2022-11-03T11:19:24;10.38;;;3.78;;
48751;SDS011;34544;48.836;9.174;2022-11-03T11:24:54;10.52;;;4.43;;
48751;SDS011;34544;48.836;9.174;2022-11-03T11:30:02;11.45;;;4.93;;
48751;SDS011;34544;48.836;9.174;2022-11-03T11:32:49;15.55;;;4.50;;
48751;SDS011;34544;48.836;9.174;2022-11-03T11:37:50;14.40;;;6.28;;
48751;SDS011;34544;48.836;9.174;2022-11-03T11:48:29;10.18;;;5.57;;
48751;SDS011;34544;48.836;9.174;2022-11-03T11:50:56;9.32;;;5.68;;
48751;SDS011;34544;48.836;9.174;2022-11-03T11:53:22;10.68;;;5.22;;
48751;SDS011;34544;48.836;9.174;2022-11-03T12:01:02;11.20;;;5.00;;
48751;SDS011;34544;48.836;9.174;2022-11-03T12:06:01;12.23;;;5.20;;
48751;SDS011;34544;48.836;9.174;2022-11-03T12:08:28;13.02;;;4.93;;
48751;SDS011;34544;48.836;9.174;2022-11-03T12:10:56;6.95;;;5.18;;
48751;SDS011;34544;48.836;9.174;2022-11-03T12:13:33;11.25;;;4.88;;
48751;SDS011;34544;48.836;9.174;2022-11-03T12:16:00;10.25;;;5.60;;
48751;SDS011;34544;48.836;9.174;2022-11-03T12:21:10;9.57;;;6.32;;
48751;SDS011;34544;48.836;9.174;2022-11-03T12:23:55;14.88;;;6.22;;
48751;SDS011;34544;48.836;9.174;2022-11-03T12:26:41;11.63;;;6.68;;
48751;SDS011;34544;48.836;9.174;2022-11-03T12:29:06;12.48;;;6.20;;
48751;SDS011;34544;48.836;9.174;2022-11-03T12:31:32;12.57;;;6.47;;
48751;SDS011;34544;48.836;9.174;2022-11-03T12:33:58;19.55;;;6.25;;
48751;SDS011;34544;48.836;9.174;2022-11-03T12:36:24;13.75;;;6.28;;
48751;SDS011;34544;48.836;9.174;2022-11-03T12:38:49;9.05;;;6.13;;
48751;SDS011;34544;48.836;9.174;2022-11-03T12:41:15;9.57;;;6.15;;
48751;SDS011;34544;48.836;9.174;2022-11-03T12:43:48;10.68;;;5.40;;
48751;SDS011;34544;48.836;9.174;2022-11-03T12:46:16;16.95;;;6.43;;
48751;SDS011;34544;48.836;9.174;2022-11-03T12:48:43;11.32;;;6.15;;
48751;SDS011;34544;48.836;9.174;2022-11-03T12:51:10;10.93;;;5.93;;
48751;SDS011;34544;48.836;9.174;2022-11-03T12:53:46;13.32;;;6.15;;
48751;SDS011;34544;48.836;9.174;2022-11-03T12:56:12;10.35;;;5.80;;
48751;SDS011;34544;48.836;9.174;2022-11-03T12:58:39;11.98;;;6.68;;
48751;SDS011;34544;48.836;9.174;2022-11-03T13:01:05;11.38;;;6.07;;
48751;SDS011;34544;48.836;9.174;2022-11-03T13:03:31;14.05;;;5.95;;
48751;SDS011;34544;48.836;9.174;2022-11-03T13:05:58;8.77;;;6.65;;
48751;SDS011;34544;48.836;9.174;2022-11-03T13:08:24;12.90;;;5.72;;
48751;SDS011;34544;48.836;9.174;2022-11-03T13:10:50;11.18;;;5.80;;
48751;SDS011;34544;48.836;9.174;2022-11-03T13:13:17;9.68;;;5.63;;
48751;SDS011;34544;48.836;9.174;2022-11-03T13:15:43;9.30;;;4.93;;
48751;SDS011;34544;48.836;9.174;2022-11-03T13:18:09;10.23;;;5.75;;
48751;SDS011;34544;48.836;9.174;2022-11-03T13:20:34;12.32;;;6.05;;
48751;SDS011;34544;48.836;9.174;2022-11-03T13:23:01;10.63;;;5.72;;
48751;SDS011;34544;48.836;9.174;2022-11-03T13:25:27;11.25;;;5.43;;
48751;SDS011;34544;48.836;9.174;2022-11-03T13:27:53;11.65;;;5.80;;
48751;SDS011;34544;48.836;9.174;2022-11-03T13:30:20;11.07;;;5.72;;
48751;SDS011;34544;48.836;9.174;2022-11-03T13:32:46;8.85;;;5.85;;
48751;SDS011;34544;48.836;9.174;2022-11-03T13:35:12;12.40;;;5.55;;
48751;SDS011;34544;48.836;9.174;2022-11-03T13:37:38;9.65;;;5.85;;
48751;SDS011;34544;48.836;9.174;2022-11-03T13:40:04;10.23;;;5.38;;
48751;SDS011;34544;48.836;9.174;2022-11-03T13:42:30;11.55;;;6.20;;
48751;SDS011;34544;48.836;9.174;2022-11-03T13:44:56;11.18;;;7.05;;
48751;SDS011;34544;48.836;9.174;2022-11-03T13:47:22;12.68;;;6.43;;
48751;SDS011;34544;48.836;9.174;2022-11-03T13:49:47;14.32;;;6.78;;
48751;SDS011;34544;48.836;9.174;2022-11-03T13:52:17;14.63;;;6.47;;
48751;SDS011;34544;48.836;9.174;2022-11-03T13:54:43;15.45;;;7.25;;
48751;SDS011;34544;48.836;9.174;2022-11-03T13:57:08;9.93;;;7.75;;
48751;SDS011;34544;48.836;9.174;2022-11-03T13:59:34;16.02;;;6.15;;
48751;SDS011;34544;48.836;9.174;2022-11-03T14:02:00;16.67;;;6.28;;
48751;SDS011;34544;48.836;9.174;2022-11-03T14:04:26;19.70;;;7.88;;
48751;SDS011;34544;48.836;9.174;2022-11-03T14:06:51;9.82;;;6.28;;
48751;SDS011;34544;48.836;9.174;2022-11-03T14:09:17;12.88;;;6.85;;
48751;SDS011;34544;48.836;9.174;2022-11-03T14:11:43;11.77;;;6.97;;
48751;SDS011;34544;48.836;9.174;2022-11-03T14:14:27;10.18;;;5.95;;
48751;SDS011;34544;48.836;9.174;2022-11-03T14:16:53;7.93;;;5.57;;
48751;SDS011;34544;48.836;9.174;2022-11-03T14:19:18;11.68;;;6.03;;
48751;SDS011;34544;48.836;9.174;2022-11-03T14:21:44;13.15;;;7.10;;
48751;SDS011;34544;48.836;9.174;2022-11-03T14:24:10;13.15;;;5.97;;
48751;SDS011;34544;48.836;9.174;2022-11-03T14:26:35;11.73;;;5.82;;
48751;SDS011;34544;48.836;9.174;2022-11-03T14:29:01;12.27;;;5.93;;
48751;SDS011;34544;48.836;9.174;2022-11-03T14:31:27;12.13;;;6.30;;
48751;SDS011;34544;48.836;9.174;2022-11-03T14:33:52;12.05;;;7.22;;
48751;SDS011;34544;48.836;9.174;2022-11-03T14:36:18;11.07;;;6.78;;
48751;SDS011;34544;48.836;9.174;2022-11-03T14:38:43;9.82;;;6.47;;
48751;SDS011;34544;48.836;9.174;2022-11-03T14:41:09;17.35;;;6.78;;
48751;SDS011;34544;48.836;9.174;2022-11-03T14:43:53;11.52;;;6.38;;
48751;SDS011;34544;48.836;9.174;2022-11-03T14:46:19;16.20;;;6.65;;
48751;SDS011;34544;48.836;9.174;2022-11-03T14:48:44;10.13;;;6.13;;
48751;SDS011;34544;48.836;9.174;2022-11-03T14:51:10;11.70;;;6.82;;
48751;SDS011;34544;48.836;9.174;2022-11-03T14:53:36;13.52;;;6.28;;
48751;SDS011;34544;48.836;9.174;2022-11-03T14:56:01;17.13;;;7.70;;
48751;SDS011;34544;48.836;9.174;2022-11-03T14:58:27;11.52;;;5.88;;
48751;SDS011;34544;48.836;9.174;2022-11-03T15:00:53;10.43;;;6.60;;
48751;SDS011;34544;48.836;9.174;2022-11-03T15:03:18;10.70;;;6.07;;
48751;SDS011;34544;48.836;9.174;2022-11-03T15:05:44;10.07;;;5.55;;
48751;SDS011;34544;48.836;9.174;2022-11-03T15:08:13;9.43;;;5.63;;
48751;SDS011;34544;48.836;9.174;2022-11-03T15:10:40;11.30;;;6.07;;
48751;SDS011;34544;48.836;9.174;2022-11-03T15:13:07;9.23;;;5.90;;
48751;SDS011;34544;48.836;9.174;2022-11-03T15:15:33;8.93;;;5.90;;
48751;SDS011;34544;48.836;9.174;2022-11-03T15:18:00;12.45;;;4.75;;
48751;SDS011;34544;48.836;9.174;2022-11-03T15:20:27;9.07;;;5.07;;
48751;SDS011;34544;48.836;9.174;2022-11-03T15:22:52;13.30;;;6.40;;
48751;SDS011;34544;48.836;9.174;2022-11-03T15:25:18;14.32;;;5.10;;
48751;SDS011;34544;48.836;9.174;2022-11-03T15:27:44;7.25;;;4.38;;
48751;SDS011;34544;48.836;9.174;2022-11-03T15:30:09;9.75;;;5.60;;
48751;SDS011;34544;48.836;9.174;2022-11-03T15:32:35;11.70;;;5.60;;
48751;SDS011;34544;48.836;9.174;2022-11-03T15:35:01;6.78;;;4.75;;
48751;SDS011;34544;48.836;9.174;2022-11-03T15:37:27;11.68;;;5.70;;
48751;SDS011;34544;48.836;9.174;2022-11-03T15:39:53;8.90;;;5.20;;
48751;SDS011;34544;48.836;9.174;2022-11-03T15:42:18;13.18;;;5.60;;
48751;SDS011;34544;48.836;9.174;2022-11-03T15:44:44;8.40;;;5.10;;
48751;SDS011;34544;48.836;9.174;2022-11-03T15:47:09;9.48;;;5.07;;
48751;SDS011;34544;48.836;9.174;2022-11-03T15:49:35;13.80;;;5.90;;
48751;SDS011;34544;48.836;9.174;2022-11-03T15:52:01;9.18;;;5.68;;
48751;SDS011;34544;48.836;9.174;2022-11-03T15:54:26;8.43;;;5.15;;
48751;SDS011;34544;48.836;9.174;2022-11-03T15:56:52;9.10;;;5.35;;
48751;SDS011;34544;48.836;9.174;2022-11-03T15:59:18;11.85;;;5.53;;
48751;SDS011;34544;48.836;9.174;2022-11-03T16:01:43;13.82;;;6.45;;